Time;durP1;ratioP1;P1;durP2;ratioP2;P2;SDS_P1;SDS_P2;PMS_P1;PMS_P2;Temp;Humidity;BMP_temperature;BMP_pressure;BME280_temperature;BME280_humidity;BME280_pressure;Samples;Min_cycle;Max_cycle;Signal;HPM_P1;HPM_P2
2022/10/05 00:00:26;;;;;;;11.68;6.97;;;;;;;7.57;89.23;96977.63;5039793;28;20045;-85
2022/10/05 00:02:56;;;;;;;10.32;6.28;;;;;;;7.62;89.36;96978.66;5039256;28;20057;-84
2022/10/05 00:05:29;;;;;;;10.65;6.93;;;;;;;7.54;89.39;96977.38;5038504;28;20053;-78
2022/10/05 00:08:04;;;;;;;12.20;7.00;;;;;;;7.54;89.27;96974.66;5039815;28;20046;-88
2022/10/05 00:10:31;;;;;;;14.23;7.70;;;;;;;7.45;89.80;96971.75;5027379;28;20033;-87
2022/10/05 00:12:58;;;;;;;12.73;7.72;;;;;;;7.36;90.08;96965.34;5034743;28;20062;-83
2022/10/05 00:15:25;;;;;;;11.73;7.00;;;;;;;7.30;90.37;96961.00;5038226;28;20045;-79
2022/10/05 00:37:20;;;;;;;9.55;5.57;;;;;;;7.40;90.52;96916.78;5342498;23;20056;-89
2022/10/05 00:57:56;;;;;;;8.23;5.60;;;;;;;7.31;90.21;96912.00;5417914;23;20043;-88
2022/10/05 01:00:26;;;;;;;10.30;5.10;;;;;;;7.14;91.09;96913.47;4976823;28;20071;-88
2022/10/05 01:03:01;;;;;;;8.63;5.40;;;;;;;7.01;92.06;96910.31;4961812;29;20031;-88
2022/10/05 01:05:44;;;;;;;9.20;5.05;;;;;;;7.16;91.56;96911.31;4976606;28;20054;-88
2022/10/05 01:08:22;;;;;;;8.20;5.47;;;;;;;7.29;91.16;96910.63;4958953;28;20039;-87
2022/10/05 01:11:02;;;;;;;9.27;5.22;;;;;;;7.39;91.03;96907.84;4961827;29;20111;-88
2022/10/05 01:13:37;;;;;;;9.82;5.40;;;;;;;7.35;90.95;96897.84;4959435;28;20047;-84
2022/10/05 01:16:10;;;;;;;8.25;4.72;;;;;;;7.33;90.85;96898.97;4975596;28;20070;-84
2022/10/05 01:18:44;;;;;;;10.82;5.70;;;;;;;7.35;90.68;96898.66;4960460;29;20195;-88
2022/10/05 01:21:19;;;;;;;9.52;5.57;;;;;;;7.30;90.70;96894.09;4959605;28;20051;-80
2022/10/05 01:24:40;;;;;;;10.68;4.43;;;;;;;7.39;91.00;96894.31;4961464;29;20075;-88
2022/10/05 01:27:30;;;;;;;8.23;5.13;;;;;;;7.38;90.89;96892.69;4916995;29;20036;-86
2022/10/05 01:30:02;;;;;;;7.65;4.82;;;;;;;7.42;90.93;96885.63;4974788;28;20038;-86
2022/10/05 01:32:34;;;;;;;7.60;4.80;;;;;;;7.36;90.81;96883.22;4961882;28;20048;-88
2022/10/05 01:35:11;;;;;;;7.88;4.57;;;;;;;7.39;90.36;96886.19;4962226;28;20066;-86
2022/10/05 01:37:50;;;;;;;6.55;4.28;;;;;;;7.44;90.50;96879.91;4977995;28;20034;-88
2022/10/05 01:40:23;;;;;;;8.07;5.00;;;;;;;7.47;90.65;96877.44;4969102;28;20059;-86
2022/10/05 01:43:03;;;;;;;8.45;4.63;;;;;;;7.54;90.75;96868.97;4960088;28;20063;-84
2022/10/05 01:45:38;;;;;;;7.90;5.10;;;;;;;7.44;90.40;96872.59;4959371;28;20043;-87
2022/10/05 01:48:09;;;;;;;7.18;4.35;;;;;;;7.48;90.37;96876.34;4958464;28;20039;-84
2022/10/05 01:50:47;;;;;;;7.10;4.72;;;;;;;7.42;90.69;96882.09;4958559;29;20040;-88
2022/10/05 01:53:24;;;;;;;6.45;4.45;;;;;;;7.43;90.92;96879.09;4941322;29;20042;-88
2022/10/05 01:56:01;;;;;;;7.43;4.70;;;;;;;7.54;90.94;96888.75;4941750;29;20047;-88
2022/10/05 01:58:38;;;;;;;6.53;4.18;;;;;;;7.52;91.01;96890.94;4958062;28;20051;-87
2022/10/05 02:01:14;;;;;;;11.18;4.47;;;;;;;7.50;90.88;96895.81;4956886;29;20059;-85
2022/10/05 02:03:49;;;;;;;7.05;4.45;;;;;;;7.50;90.67;96885.00;4940892;29;20046;-88
2022/10/05 02:06:20;;;;;;;7.72;5.03;;;;;;;7.55;91.29;96893.06;4956458;29;20051;-89
2022/10/05 02:08:52;;;;;;;12.70;4.82;;;;;;;7.55;91.80;96882.22;4957705;29;20052;-89
2022/10/05 02:11:20;;;;;;;7.03;4.10;;;;;;;7.62;91.97;96881.88;4939964;29;20060;-89
2022/10/05 02:13:52;;;;;;;7.90;4.47;;;;;;;7.69;92.22;96879.66;4941210;29;20055;-89
2022/10/05 02:16:25;;;;;;;7.28;4.40;;;;;;;7.73;92.60;96877.19;4956506;29;20074;-88
2022/10/05 02:18:56;;;;;;;5.90;4.33;;;;;;;7.77;92.61;96873.59;4941377;29;20083;-88
2022/10/05 02:21:24;;;;;;;8.23;4.97;;;;;;;7.78;92.66;96869.03;4956905;29;20291;-88
2022/10/05 02:23:56;;;;;;;6.88;4.47;;;;;;;7.80;93.07;96872.25;4956095;29;20052;-89
2022/10/05 02:26:25;;;;;;;7.07;4.47;;;;;;;7.80;92.90;96867.63;4956612;29;20028;-87
2022/10/05 02:28:58;;;;;;;7.28;4.22;;;;;;;7.81;92.39;96860.28;4926114;29;20047;-88
2022/10/05 02:31:29;;;;;;;6.40;4.05;;;;;;;7.81;92.40;96868.44;4939801;29;20070;-88
2022/10/05 02:34:21;;;;;;;7.65;5.07;;;;;;;7.76;92.01;96863.88;4956853;29;20111;-89
2022/10/05 02:36:54;;;;;;;7.30;4.57;;;;;;;7.74;91.66;96847.09;4957130;29;20048;-89
2022/10/05 02:39:25;;;;;;;;;;;;;;;7.75;91.55;96847.91;4924959;29;20056;-88
2022/10/05 02:42:03;;;;;;;8.52;4.50;;;;;;;7.76;91.77;96854.94;4955752;29;19923;-89
2022/10/05 02:44:42;;;;;;;7.40;4.70;;;;;;;7.72;91.59;96851.97;4940542;29;20038;-88
2022/10/05 02:47:17;;;;;;;7.68;4.80;;;;;;;7.73;91.75;96844.66;4955820;29;20047;-87
2022/10/05 02:49:50;;;;;;;8.10;5.20;;;;;;;7.62;91.48;96848.56;4957342;28;20119;-89
2022/10/05 02:52:21;;;;;;;10.43;5.50;;;;;;;7.56;91.34;96840.47;4956781;29;20051;-89
2022/10/05 02:54:59;;;;;;;7.53;5.38;;;;;;;7.45;91.91;96825.41;4956778;29;20052;-89
2022/10/05 02:57:31;;;;;;;9.13;5.07;;;;;;;7.46;92.17;96829.75;4939550;29;20075;-88
2022/10/05 03:00:08;;;;;;;7.13;4.18;;;;;;;7.57;92.08;96834.00;4956390;29;20063;-88
2022/10/05 03:02:42;;;;;;;9.32;4.50;;;;;;;7.68;91.89;96848.25;4955862;29;20052;-88
2022/10/05 03:05:20;;;;;;;6.18;4.07;;;;;;;7.74;91.79;96847.09;4939033;29;20032;-87
2022/10/05 03:10:41;;;;;;;7.97;4.75;;;;;;;7.72;91.11;96843.84;4930643;29;20039;-88
2022/10/05 03:13:14;;;;;;;7.80;4.70;;;;;;;7.73;90.72;96850.09;4939354;29;20095;-85
2022/10/05 03:16:12;;;;;;;7.07;4.60;;;;;;;7.72;90.54;96848.44;4940335;29;20048;-88
2022/10/05 03:18:51;;;;;;;8.50;4.80;;;;;;;7.68;90.46;96859.09;4955715;29;20050;-88
2022/10/05 03:21:35;;;;;;;8.48;5.03;;;;;;;7.64;90.49;96865.38;4940529;29;20048;-89
2022/10/05 03:24:18;;;;;;;11.98;7.10;;;;;;;7.45;90.63;96860.66;4956507;29;20055;-80
2022/10/05 03:26:53;;;;;;;8.55;4.75;;;;;;;7.46;90.63;96856.03;4956902;29;20055;-87
2022/10/05 03:29:29;;;;;;;7.20;4.50;;;;;;;7.50;90.78;96857.88;4938751;29;20058;-88
2022/10/05 03:32:03;;;;;;;11.50;4.85;;;;;;;7.50;90.38;96863.31;4943782;29;20133;-88
2022/10/05 03:34:36;;;;;;;6.95;4.22;;;;;;;7.52;90.69;96861.13;4942380;29;20040;-88
2022/10/05 03:37:11;;;;;;;7.68;5.32;;;;;;;7.52;90.77;96858.44;4960078;29;20052;-80
2022/10/05 03:39:41;;;;;;;7.88;4.63;;;;;;;7.52;91.15;96855.72;4927839;29;20044;-89
2022/10/05 03:42:20;;;;;;;8.07;4.93;;;;;;;7.51;91.17;96859.50;4943004;29;20119;-85
2022/10/05 03:44:54;;;;;;;6.97;4.50;;;;;;;7.50;91.35;96866.00;4943427;29;20051;-88
2022/10/05 03:47:32;;;;;;;8.98;4.82;;;;;;;7.50;90.71;96865.22;4958425;29;20055;-89
2022/10/05 03:50:16;;;;;;;7.18;4.65;;;;;;;7.48;90.58;96860.09;4943005;29;20051;-88
2022/10/05 03:52:48;;;;;;;9.75;4.68;;;;;;;7.19;89.60;96851.13;4960024;29;20075;-88
2022/10/05 03:55:22;;;;;;;8.35;4.78;;;;;;;7.16;89.73;96846.28;4942560;29;20079;-88
2022/10/05 03:57:51;;;;;;;6.55;4.55;;;;;;;7.14;89.96;96843.84;4943635;29;20048;-88
2022/10/05 04:00:21;;;;;;;8.15;4.70;;;;;;;7.16;90.08;96847.09;4942755;29;20063;-87
2022/10/05 04:02:55;;;;;;;6.00;3.92;;;;;;;7.17;90.28;96840.59;4959493;28;20056;-89
2022/10/05 04:05:27;;;;;;;6.22;4.40;;;;;;;7.20;90.37;96841.91;4959345;29;20056;-88
2022/10/05 04:10:49;;;;;;;6.28;4.18;;;;;;;7.18;90.51;96841.41;4950913;29;20058;-89
2022/10/05 04:13:22;;;;;;;7.60;4.30;;;;;;;7.20;90.76;96836.50;4958819;29;20038;-87
2022/10/05 04:15:58;;;;;;;8.65;4.63;;;;;;;7.23;91.07;96838.63;4958997;29;20048;-88
2022/10/05 04:18:32;;;;;;;6.93;4.88;;;;;;;7.20;90.16;96850.03;4942210;29;20032;-88
2022/10/05 04:21:05;;;;;;;7.63;3.78;;;;;;;7.12;90.04;96848.75;4949882;28;20055;-88
2022/10/05 04:23:48;;;;;;;4.78;3.70;;;;;;;7.04;89.28;96852.06;4959298;29;20057;-88
2022/10/05 04:26:19;;;;;;;6.10;4.05;;;;;;;7.00;88.78;96848.31;4942505;28;20050;-83
2022/10/05 04:28:54;;;;;;;7.07;4.13;;;;;;;6.97;88.88;96840.75;4961655;28;20036;-79
2022/10/05 04:31:36;;;;;;;6.15;4.43;;;;;;;6.99;89.43;96846.69;4945226;28;20040;-82
2022/10/05 04:34:15;;;;;;;9.07;4.22;;;;;;;7.00;89.81;96848.31;4944531;28;20032;-80
2022/10/05 04:36:47;;;;;;;11.32;5.18;;;;;;;7.02;89.89;96841.53;4964601;23;20047;-82
2022/10/05 04:39:23;;;;;;;5.70;4.20;;;;;;;7.03;90.08;96843.13;4941414;28;20095;-81
2022/10/05 04:49:10;;;;;;;7.43;4.68;;;;;;;7.07;90.58;96854.22;5202466;23;20023;-81
2022/10/05 04:51:49;;;;;;;6.80;4.28;;;;;;;7.03;90.63;96851.25;4992407;28;20038;-83
2022/10/05 04:54:24;;;;;;;7.78;4.55;;;;;;;7.02;91.02;96846.94;4982801;28;20058;-81
2022/10/05 04:56:55;;;;;;;5.95;4.40;;;;;;;7.03;90.85;96855.84;4983380;28;20100;-83
2022/10/05 04:59:46;;;;;;;7.05;4.00;;;;;;;7.06;90.85;96853.41;4981839;28;20079;-81
2022/10/05 05:02:22;;;;;;;6.90;4.15;;;;;;;7.03;90.53;96863.97;4996614;28;20051;-88
2022/10/05 05:05:08;;;;;;;6.93;4.45;;;;;;;7.00;90.01;96864.56;4998577;28;20037;-87
2022/10/05 05:07:45;;;;;;;7.50;4.50;;;;;;;7.03;90.13;96864.78;4998569;28;20035;-86
2022/10/05 05:10:41;;;;;;;6.50;4.60;;;;;;;6.99;90.48;96869.16;4997707;28;20599;-85
2022/10/05 05:13:23;;;;;;;5.95;4.03;;;;;;;6.99;90.53;96863.72;4997983;28;20034;-81
2022/10/05 05:15:54;;;;;;;6.65;4.30;;;;;;;6.98;90.82;96872.94;4981863;28;20103;-88
2022/10/05 05:19:05;;;;;;;9.32;4.68;;;;;;;6.99;91.27;96874.56;4979806;28;20078;-87
2022/10/05 05:21:41;;;;;;;8.15;4.78;;;;;;;6.92;91.30;96871.38;4979721;28;20047;-86
2022/10/05 05:24:19;;;;;;;7.63;4.55;;;;;;;6.92;91.03;96874.09;4978873;28;20043;-84
2022/10/05 05:27:04;;;;;;;7.70;4.38;;;;;;;6.96;91.35;96885.16;4995183;28;20043;-87
2022/10/05 05:29:47;;;;;;;6.30;4.43;;;;;;;6.96;91.11;96875.16;4993552;28;20074;-87
2022/10/05 05:32:28;;;;;;;7.70;5.07;;;;;;;6.91;90.46;96883.31;4963416;28;20437;-86
2022/10/05 05:35:08;;;;;;;10.00;5.03;;;;;;;6.90;90.97;96887.09;5397827;23;20103;-87
2022/10/05 05:37:43;;;;;;;8.85;4.82;;;;;;;6.74;90.96;96872.88;4976670;28;20047;-87
2022/10/05 05:45:46;;;;;;;10.43;5.35;;;;;;;6.79;91.49;96880.16;5025977;23;20047;-87
2022/10/05 05:48:18;;;;;;;8.95;5.53;;;;;;;6.88;91.77;96877.63;4987191;28;20054;-85
2022/10/05 05:50:55;;;;;;;11.20;5.18;;;;;;;6.83;91.83;96869.53;4978286;28;20061;-86
2022/10/05 05:53:27;;;;;;;7.00;4.45;;;;;;;6.89;92.33;96874.66;4992869;28;20077;-85
2022/10/05 05:55:59;;;;;;;5.07;3.25;;;;;;;6.99;92.50;96879.97;4957909;29;20051;-87
2022/10/05 05:58:33;;;;;;;6.30;4.13;;;;;;;7.06;92.76;96864.25;4974806;28;20047;-86
2022/10/05 06:01:06;;;;;;;5.70;4.15;;;;;;;7.16;93.18;96867.97;4974358;28;20071;-86
2022/10/05 06:03:38;;;;;;;6.72;4.25;;;;;;;7.27;93.54;96866.78;4973733;28;20043;-83
2022/10/05 06:06:10;;;;;;;13.30;4.72;;;;;;;7.36;93.67;96866.97;4972848;28;20055;-86
2022/10/05 06:08:41;;;;;;;8.25;4.07;;;;;;;7.42;93.73;96865.84;4974563;28;20043;-86
2022/10/05 06:11:14;;;;;;;7.78;4.18;;;;;;;7.46;93.96;96875.81;4972917;28;20059;-86
2022/10/05 06:13:43;;;;;;;7.88;4.65;;;;;;;7.58;94.12;96873.53;4991366;28;20505;-87
2022/10/05 06:16:18;;;;;;;8.70;4.80;;;;;;;7.66;94.41;96880.22;4992573;28;20050;-86
2022/10/05 06:18:50;;;;;;;7.18;4.30;;;;;;;7.75;93.95;96877.72;4975552;28;20061;-87
2022/10/05 06:21:24;;;;;;;6.97;4.70;;;;;;;7.84;94.22;96881.41;4991197;28;20051;-86
2022/10/05 06:23:56;;;;;;;6.93;4.68;;;;;;;7.92;94.02;96877.25;4991819;28;20074;-87
2022/10/05 06:30:07;;;;;;;9.63;5.40;;;;;;;8.10;93.56;96869.19;5000378;23;20439;-88
2022/10/05 06:35:20;;;;;;;7.65;5.00;;;;;;;8.28;92.90;96872.22;5981732;23;20108;-88
2022/10/05 06:38:01;;;;;;;8.20;4.68;;;;;;;8.42;92.50;96875.09;4992408;28;20051;-85
2022/10/05 06:40:41;;;;;;;9.48;5.65;;;;;;;8.55;92.88;96877.88;4992320;28;20054;-86
2022/10/05 06:43:21;;;;;;;9.27;4.68;;;;;;;8.66;92.82;96877.72;4973873;28;20089;-88
2022/10/05 06:45:58;;;;;;;8.40;4.60;;;;;;;8.79;92.26;96877.03;4974947;28;20059;-86
2022/10/05 06:53:46;;;;;;;8.88;4.80;;;;;;;9.08;90.88;96874.97;5563110;23;20576;-81
2022/10/05 06:56:18;;;;;;;6.18;3.65;;;;;;;9.27;90.20;96868.69;4972720;28;20085;-80
2022/10/05 06:58:55;;;;;;;7.85;3.40;;;;;;;9.36;88.85;96870.44;4973509;28;20510;-81
2022/10/05 07:01:37;;;;;;;6.95;3.50;;;;;;;9.62;88.49;96870.78;4975325;28;20085;-81
2022/10/05 07:04:31;;;;;;;5.10;2.90;;;;;;;10.05;86.75;96876.00;4973040;28;20055;-81
2022/10/05 07:07:00;;;;;;;5.40;3.00;;;;;;;10.77;83.03;96874.56;4980856;28;20034;-81
2022/10/05 07:09:41;;;;;;;4.00;2.35;;;;;;;11.36;78.90;96869.91;5001929;23;20114;-87
2022/10/05 07:12:28;;;;;;;4.32;2.63;;;;;;;11.89;76.18;96877.31;4977397;28;20063;-84
2022/10/05 07:15:10;;;;;;;4.32;2.10;;;;;;;12.28;74.93;96885.53;4976099;28;20051;-86
2022/10/05 07:17:50;;;;;;;5.88;2.40;;;;;;;12.18;73.17;96877.59;4974938;29;20047;-86
2022/10/05 07:20:22;;;;;;;7.82;2.10;;;;;;;11.97;74.01;96880.09;4973326;28;20055;-85
2022/10/05 07:23:12;;;;;;;5.38;2.05;;;;;;;11.64;76.93;96885.03;4952703;29;20507;-86
2022/10/05 07:25:46;;;;;;;3.53;2.30;;;;;;;11.71;77.69;96888.09;4952545;29;20047;-86
2022/10/05 07:28:21;;;;;;;4.57;2.50;;;;;;;12.01;76.28;96891.19;4953317;29;20120;-87
2022/10/05 07:30:57;;;;;;;3.42;1.98;;;;;;;12.62;75.00;96889.47;4952671;29;20072;-84
2022/10/05 07:33:29;;;;;;;4.45;2.10;;;;;;;12.51;72.52;96899.09;4951668;29;20075;-86
2022/10/05 07:38:54;;;;;;;4.15;2.30;;;;;;;12.65;74.12;96907.16;4965292;28;20079;-85
2022/10/05 07:41:32;;;;;;;5.10;2.05;;;;;;;12.95;74.26;96916.41;4952809;29;20078;-86
2022/10/05 07:44:09;;;;;;;4.57;2.22;;;;;;;13.27;74.11;96915.16;4954039;29;20063;-85
2022/10/05 07:46:47;;;;;;;4.50;1.92;;;;;;;13.55;68.43;96927.38;4951294;29;20399;-84
2022/10/05 07:49:21;;;;;;;5.30;1.52;;;;;;;13.58;70.27;96929.47;4952405;28;20709;-84
2022/10/05 07:51:53;;;;;;;3.17;1.80;;;;;;;13.56;70.67;96933.66;4973137;28;20055;-86
2022/10/05 07:54:24;;;;;;;3.30;1.70;;;;;;;13.51;71.49;96936.53;4943710;28;20081;-83
2022/10/05 07:57:04;;;;;;;6.32;1.90;;;;;;;13.58;71.65;96925.94;4934992;29;20044;-85
2022/10/05 07:59:37;;;;;;;3.50;1.83;;;;;;;13.87;73.51;96932.66;4953972;29;20047;-86
2022/10/05 08:02:07;;;;;;;;;;;;;;;14.19;71.12;96940.28;4969084;28;20086;-85
2022/10/05 08:04:44;;;;;;;5.82;2.10;;;;;;;14.22;71.46;96930.63;4973269;28;19930;-87
2022/10/05 08:07:15;;;;;;;3.72;1.95;;;;;;;14.22;70.68;96931.44;4972298;28;20058;-86
2022/10/05 08:09:49;;;;;;;6.13;2.70;;;;;;;14.23;70.51;96935.78;4973800;28;20079;-86
2022/10/05 08:12:29;;;;;;;4.55;2.55;;;;;;;14.30;71.57;96936.09;4973418;28;20526;-86
2022/10/05 08:14:59;;;;;;;6.63;2.67;;;;;;;14.30;71.83;96935.25;4973895;28;20051;-86
2022/10/05 08:17:37;;;;;;;7.18;2.72;;;;;;;14.12;71.93;96936.47;4951546;28;20072;-85
2022/10/05 08:20:20;;;;;;;5.20;2.40;;;;;;;13.99;72.06;96935.50;4942476;28;20058;-84
2022/10/05 08:22:54;;;;;;;4.00;2.40;;;;;;;14.10;72.87;96936.81;4951196;29;20052;-85
2022/10/05 08:25:26;;;;;;;4.97;2.47;;;;;;;14.04;72.84;96935.34;4951756;28;20284;-84
2022/10/05 08:28:00;;;;;;;4.45;2.40;;;;;;;14.02;73.26;96935.69;4952137;28;20061;-84
2022/10/05 08:30:32;;;;;;;8.88;2.60;;;;;;;13.89;73.22;96938.63;4925226;29;20067;-85
2022/10/05 08:33:05;;;;;;;5.80;2.88;;;;;;;13.87;74.11;96938.13;4946775;29;20048;-84
2022/10/05 08:35:39;;;;;;;5.93;2.58;;;;;;;13.87;74.65;96940.88;4950919;28;20059;-85
2022/10/05 08:38:15;;;;;;;3.55;2.35;;;;;;;14.01;75.26;96934.06;4951091;28;20052;-84
2022/10/05 08:41:17;;;;;;;16.70;8.82;;;;;;;14.04;74.77;96932.59;4968389;29;20050;-84
2022/10/05 08:44:29;;;;;;;4.97;3.50;;;;;;;14.27;75.65;96938.69;4949605;29;20043;-84
2022/10/05 08:47:16;;;;;;;6.60;2.10;;;;;;;14.39;75.15;96941.53;4935919;29;20043;-84
2022/10/05 08:50:19;;;;;;;3.42;2.10;;;;;;;14.43;74.40;96944.44;4966337;28;20164;-84
2022/10/05 08:53:11;;;;;;;3.83;1.83;;;;;;;14.57;72.72;96943.09;4971193;28;20130;-85
2022/10/05 08:55:49;;;;;;;4.68;2.00;;;;;;;14.67;71.82;96950.16;4969705;28;20051;-83
2022/10/05 08:58:50;;;;;;;4.35;1.50;;;;;;;14.85;70.74;96940.69;4968613;28;20057;-84
2022/10/05 09:01:26;;;;;;;3.05;1.60;;;;;;;14.99;70.93;96939.66;4977297;28;20047;-85
2022/10/05 09:04:28;;;;;;;3.17;1.77;;;;;;;15.14;70.81;96930.84;4979302;28;20042;-85
2022/10/05 09:07:17;;;;;;;2.17;1.50;;;;;;;15.20;70.65;96935.00;4978487;28;20051;-85
2022/10/05 09:10:13;;;;;;;3.50;1.63;;;;;;;15.27;68.19;96934.47;4978760;28;20059;-85
2022/10/05 09:12:59;;;;;;;4.00;1.77;;;;;;;15.43;66.62;96931.94;4960810;29;20035;-84
2022/10/05 09:15:44;;;;;;;2.55;1.20;;;;;;;15.63;67.71;96936.63;4955393;28;20043;-86
2022/10/05 09:18:45;;;;;;;2.15;1.35;;;;;;;15.75;66.19;96936.69;4974863;28;20075;-85
2022/10/05 09:21:22;;;;;;;5.80;1.30;;;;;;;15.88;66.75;96932.84;4970422;28;20047;-84
2022/10/05 09:24:00;;;;;;;3.63;1.20;;;;;;;15.99;66.24;96937.91;4970080;28;20057;-84
2022/10/05 09:26:42;;;;;;;2.10;1.20;;;;;;;16.03;66.50;96934.16;4970082;28;20043;-84
2022/10/05 09:29:36;;;;;;;1.65;1.20;;;;;;;16.17;67.37;96933.84;4972048;28;20061;-81
2022/10/05 09:32:31;;;;;;;5.10;1.70;;;;;;;16.19;64.95;96928.81;4967063;28;20051;-83
2022/10/05 09:35:15;;;;;;;5.03;2.10;;;;;;;16.22;63.27;96936.38;4949285;29;20051;-84
2022/10/05 09:38:08;;;;;;;4.90;1.70;;;;;;;16.26;62.22;96937.28;4949544;29;20035;-84
2022/10/05 09:40:59;;;;;;;3.58;1.60;;;;;;;16.23;61.83;96937.97;4931419;29;20075;-82
2022/10/05 09:43:56;;;;;;;3.75;1.38;;;;;;;16.21;61.82;96939.47;4963774;28;20065;-84
2022/10/05 09:46:48;;;;;;;2.83;1.20;;;;;;;16.44;61.61;96943.38;4964398;28;20051;-84
2022/10/05 09:49:29;;;;;;;2.33;1.10;;;;;;;16.59;60.12;96936.41;4968776;28;20051;-84
2022/10/05 09:52:14;;;;;;;3.03;1.30;;;;;;;16.79;61.18;96935.53;4949816;29;20051;-84
2022/10/05 09:55:19;;;;;;;10.80;1.92;;;;;;;16.92;65.13;96931.66;4947354;29;20050;-85
2022/10/05 09:58:05;;;;;;;4.40;1.00;;;;;;;17.08;59.74;96929.00;4948652;29;20111;-84
2022/10/05 10:00:48;;;;;;;4.90;1.50;;;;;;;17.34;61.12;96931.38;4948340;29;20051;-84
2022/10/05 10:03:55;;;;;;;2.38;1.10;;;;;;;17.55;61.34;96922.13;4968377;28;20134;-84
2022/10/05 10:06:40;;;;;;;4.35;1.30;;;;;;;17.59;56.05;96932.09;4971102;28;20078;-83
2022/10/05 10:09:34;;;;;;;2.13;1.20;;;;;;;17.79;56.44;96933.06;4955412;28;20111;-83
2022/10/05 10:12:20;;;;;;;3.70;1.58;;;;;;;17.88;57.61;96922.72;4969073;28;20102;-83
2022/10/05 10:15:37;;;;;;;3.72;1.10;;;;;;;18.03;57.46;96923.91;4983630;28;20070;-84
2022/10/05 10:18:41;;;;;;;2.00;1.15;;;;;;;18.08;57.73;96920.09;5011022;23;20126;-82
2022/10/05 10:21:31;;;;;;;3.72;1.15;;;;;;;18.18;57.33;96922.34;4939793;29;20106;-82
2022/10/05 10:24:13;;;;;;;2.83;1.20;;;;;;;18.24;55.59;96923.66;4969080;29;20053;-84
2022/10/05 10:27:18;;;;;;;3.58;1.33;;;;;;;18.25;55.45;96914.25;4967665;29;20050;-84
2022/10/05 10:30:22;;;;;;;2.20;1.25;;;;;;;18.33;55.61;96912.47;4983433;28;20054;-83
2022/10/05 10:33:21;;;;;;;2.33;1.40;;;;;;;18.40;55.07;96899.66;4940885;28;20073;-83
2022/10/05 10:35:59;;;;;;;3.50;1.40;;;;;;;18.40;54.46;96909.91;4964047;28;20064;-84
2022/10/05 10:56:54;;;;;;;5.60;3.38;;;;;;;18.90;54.25;96895.41;5971571;23;20521;-78
2022/10/05 11:00:03;;;;;;;8.82;5.82;;;;;;;19.04;55.35;96897.66;4997048;28;20050;-80
2022/10/05 11:02:51;;;;;;;3.33;1.30;;;;;;;19.02;54.54;96903.56;5074340;23;20101;-83
2022/10/05 11:05:41;;;;;;;3.63;1.35;;;;;;;18.91;52.55;96902.50;5006539;28;20046;-82
2022/10/05 11:08:38;;;;;;;3.70;1.35;;;;;;;18.92;53.42;96893.06;4987809;28;20054;-83
2022/10/05 11:11:49;;;;;;;8.93;2.13;;;;;;;18.85;52.31;96886.59;4962608;28;20054;-83
2022/10/05 11:14:35;;;;;;;3.85;1.42;;;;;;;19.02;53.44;96881.47;4992083;28;20042;-83
2022/10/05 11:17:23;;;;;;;1.92;1.05;;;;;;;19.14;53.37;96890.78;4992378;28;20051;-81
2022/10/05 11:20:02;;;;;;;3.47;1.35;;;;;;;19.19;52.37;96885.00;4975092;28;20050;-84
2022/10/05 11:22:45;;;;;;;2.70;1.23;;;;;;;19.20;52.19;96886.59;4989655;28;20106;-83
2022/10/05 11:25:33;;;;;;;4.35;1.00;;;;;;;19.24;52.49;96884.72;4962385;28;20053;-83
2022/10/05 11:28:16;;;;;;;1.70;1.00;;;;;;;19.37;53.85;96877.91;4983302;28;20046;-83
2022/10/05 11:31:22;;;;;;;1.83;1.30;;;;;;;19.52;55.33;96866.00;4989490;28;20046;-84
2022/10/05 11:34:17;;;;;;;4.10;1.20;;;;;;;19.72;55.55;96863.22;4982683;28;20047;-79
2022/10/05 11:37:10;;;;;;;9.35;1.38;;;;;;;19.60;53.45;96866.16;4966843;28;20384;-84
2022/10/05 11:39:52;;;;;;;5.50;1.20;;;;;;;19.78;51.85;96865.34;4977726;28;20103;-84
2022/10/05 11:43:04;;;;;;;1.30;1.10;;;;;;;19.91;50.73;96860.44;5002590;28;20127;-82
2022/10/05 11:45:46;;;;;;;4.07;1.45;;;;;;;20.00;50.36;96857.47;4977029;28;20114;-85
2022/10/05 11:48:33;;;;;;;2.63;1.20;;;;;;;20.15;52.10;96859.31;4976852;28;20101;-83
2022/10/05 11:51:36;;;;;;;3.55;1.13;;;;;;;20.29;51.47;96850.44;4978505;28;20050;-83
2022/10/05 11:54:17;;;;;;;3.65;1.65;;;;;;;20.47;51.06;96848.81;4967657;28;20065;-82
2022/10/05 11:56:49;;;;;;;2.10;1.20;;;;;;;20.43;50.92;96845.16;4996731;28;20069;-84
2022/10/05 11:59:22;;;;;;;1.67;1.08;;;;;;;20.50;50.97;96844.50;4995657;28;20054;-84
2022/10/05 12:01:57;;;;;;;3.15;1.30;;;;;;;20.46;49.66;96838.91;4997143;28;20035;-84
2022/10/05 12:04:32;;;;;;;2.05;1.20;;;;;;;20.67;51.16;96834.88;4996797;28;20049;-84
2022/10/05 12:07:08;;;;;;;2.30;1.30;;;;;;;20.71;47.91;96836.53;4987515;28;20035;-84
2022/10/05 12:10:18;;;;;;;4.65;2.13;;;;;;;20.85;49.00;96824.88;4995872;28;20069;-83
2022/10/05 12:13:18;;;;;;;2.15;1.10;;;;;;;20.96;47.70;96823.06;4994766;28;20070;-84
2022/10/05 12:15:51;;;;;;;3.70;1.20;;;;;;;21.14;50.93;96816.97;4977741;28;20031;-84
2022/10/05 12:18:23;;;;;;;3.15;1.20;;;;;;;21.17;48.02;96813.47;4998312;28;20050;-85
2022/10/05 12:20:56;;;;;;;1.65;1.00;;;;;;;21.22;49.56;96815.91;4993784;28;20043;-83
2022/10/05 12:23:32;;;;;;;5.18;1.27;;;;;;;21.08;47.81;96808.97;4976675;28;20043;-84
2022/10/05 12:26:03;;;;;;;1.65;1.10;;;;;;;21.14;48.29;96811.44;4980723;28;20090;-85
2022/10/05 12:28:35;;;;;;;1.60;1.10;;;;;;;21.26;47.67;96809.22;4994202;28;20071;-83
2022/10/05 12:31:19;;;;;;;3.92;1.30;;;;;;;21.09;45.93;96801.50;4997999;28;20055;-85
2022/10/05 12:33:53;;;;;;;1.55;1.00;;;;;;;21.24;47.11;96814.34;4982851;28;20057;-82
2022/10/05 12:36:28;;;;;;;3.03;1.20;;;;;;;21.20;46.60;96793.34;4996269;28;20053;-84
2022/10/05 12:39:02;;;;;;;2.65;1.10;;;;;;;21.16;48.03;96796.03;4991663;28;20047;-84
2022/10/05 12:41:36;;;;;;;4.78;1.10;;;;;;;21.22;48.50;96793.75;4988314;28;20126;-82
2022/10/05 12:44:14;;;;;;;2.08;1.00;;;;;;;21.23;47.20;96795.31;4988710;28;20055;-82
2022/10/05 12:46:51;;;;;;;1.88;1.20;;;;;;;21.25;47.03;96798.53;4988387;28;20111;-83
2022/10/05 12:49:34;;;;;;;2.53;1.20;;;;;;;20.98;48.23;96800.53;4957165;28;20047;-84
2022/10/05 12:52:04;;;;;;;1.88;1.00;;;;;;;20.83;47.36;96811.44;4981502;28;20051;-83
2022/10/05 12:54:42;;;;;;;1.80;0.95;;;;;;;20.94;47.90;96799.72;4989535;28;20047;-83
2022/10/05 12:57:17;;;;;;;3.38;1.35;;;;;;;20.81;48.35;96801.91;4973740;28;20051;-83
2022/10/05 12:59:50;;;;;;;1.98;1.08;;;;;;;20.78;47.98;96802.66;4987843;28;20130;-81
2022/10/05 13:02:23;;;;;;;;;;;;;;;20.83;47.85;96805.09;4976930;28;20703;-81
2022/10/05 13:04:55;;;;;;;1.60;1.00;;;;;;;20.87;51.04;96802.38;4977692;28;20424;-81
2022/10/05 13:07:47;;;;;;;2.37;1.10;;;;;;;20.94;49.34;96794.97;4976775;28;20082;-81
2022/10/05 13:10:27;;;;;;;2.25;1.10;;;;;;;20.84;48.56;96798.38;4978705;28;20868;-80
2022/10/05 13:13:11;;;;;;;3.40;1.02;;;;;;;20.88;49.58;96790.94;4992250;28;20050;-81
2022/10/05 13:15:45;;;;;;;;;;;;;;;20.85;49.49;96792.47;4992788;28;20054;-83
2022/10/05 13:18:23;;;;;;;4.30;1.50;;;;;;;20.80;51.01;96792.00;4994844;28;19922;-82
2022/10/05 13:21:03;;;;;;;1.20;0.90;;;;;;;20.94;50.18;96791.41;4986245;28;20053;-82
2022/10/05 13:23:42;;;;;;;1.35;1.08;;;;;;;20.88;49.99;96790.94;4989298;28;20035;-81
2022/10/05 13:26:15;;;;;;;5.10;2.10;;;;;;;20.87;50.25;96794.84;4993097;28;20039;-82
2022/10/05 13:28:48;;;;;;;;;;;;;;;20.76;49.48;96793.91;4996507;28;20058;-81
2022/10/05 13:31:24;;;;;;;1.67;1.10;;;;;;;20.89;51.43;96787.00;4993609;28;19922;-82
2022/10/05 13:34:12;;;;;;;3.15;1.10;;;;;;;20.84;48.23;96784.56;4997573;28;20090;-85
2022/10/05 13:36:48;;;;;;;3.80;1.30;;;;;;;20.81;49.36;96791.63;4986441;28;20062;-85
2022/10/05 13:40:09;;;;;;;2.17;1.00;;;;;;;20.78;47.62;96797.13;4967870;28;20051;-87
2022/10/05 13:42:43;;;;;;;2.70;1.20;;;;;;;20.83;47.72;96788.50;4981892;28;20486;-84
2022/10/05 13:45:19;;;;;;;5.03;1.40;;;;;;;20.76;48.09;96785.59;4992042;28;20054;-84
2022/10/05 13:48:06;;;;;;;2.78;1.50;;;;;;;20.67;47.52;96790.59;4991281;28;20074;-85
2022/10/05 13:50:41;;;;;;;8.23;1.95;;;;;;;20.74;47.78;96790.72;4996389;28;20478;-85
2022/10/05 13:53:20;;;;;;;2.63;1.10;;;;;;;20.74;50.50;96787.97;4989716;28;20050;-84
2022/10/05 13:55:53;;;;;;;4.18;1.23;;;;;;;20.81;48.83;96790.81;5009238;28;20046;-84
2022/10/05 13:58:42;;;;;;;1.27;0.90;;;;;;;20.86;49.57;96782.19;4992999;28;20115;-85
2022/10/05 14:01:17;;;;;;;7.90;2.22;;;;;;;20.92;48.59;96775.16;4990987;28;20046;-84
2022/10/05 14:04:10;;;;;;;1.42;1.00;;;;;;;20.89;48.79;96781.47;4992032;28;20062;-84
2022/10/05 14:06:38;;;;;;;2.70;1.40;;;;;;;20.95;50.04;96779.94;4943471;28;20035;-84